sensor_id;sensor_type;location;lat;lon;timestamp;temperature;humidity
10660;DHT22;5378;53.206;13.316;2022-08-30T00:01:49;18.20;99.90
10660;DHT22;5378;53.206;13.316;2022-08-30T00:04:37;18.10;99.90
10660;DHT22;5378;53.206;13.316;2022-08-30T00:07:24;18.10;99.90
10660;DHT22;5378;53.206;13.316;2022-08-30T00:10:12;18.10;99.90
10660;DHT22;5378;53.206;13.316;2022-08-30T00:12:59;18.10;99.90
10660;DHT22;5378;53.206;13.316;2022-08-30T00:15:47;18.00;99.90
10660;DHT22;5378;53.206;13.316;2022-08-30T00:18:35;18.00;99.90
10660;DHT22;5378;53.206;13.316;2022-08-30T00:21:24;18.00;99.90
10660;DHT22;5378;53.206;13.316;2022-08-30T00:24:12;18.00;99.90
10660;DHT22;5378;53.206;13.316;2022-08-30T00:26:59;18.10;99.90
10660;DHT22;5378;53.206;13.316;2022-08-30T00:29:46;18.20;99.90
10660;DHT22;5378;53.206;13.316;2022-08-30T00:32:33;18.20;99.90
10660;DHT22;5378;53.206;13.316;2022-08-30T00:35:22;18.20;99.90
10660;DHT22;5378;53.206;13.316;2022-08-30T00:38:11;18.30;99.90
10660;DHT22;5378;53.206;13.316;2022-08-30T00:40:58;18.20;99.90
10660;DHT22;5378;53.206;13.316;2022-08-30T00:43:46;18.20;99.90
10660;DHT22;5378;53.206;13.316;2022-08-30T00:46:33;18.20;99.90
10660;DHT22;5378;53.206;13.316;2022-08-30T00:49:21;18.20;99.90
10660;DHT22;5378;53.206;13.316;2022-08-30T00:52:08;18.30;99.90
10660;DHT22;5378;53.206;13.316;2022-08-30T00:54:58;18.20;99.90
10660;DHT22;5378;53.206;13.316;2022-08-30T00:57:47;18.20;99.90
10660;DHT22;5378;53.206;13.316;2022-08-30T01:00:37;18.20;99.90
10660;DHT22;5378;53.206;13.316;2022-08-30T01:03:25;18.10;99.90
10660;DHT22;5378;53.206;13.316;2022-08-30T01:06:14;18.20;99.90
10660;DHT22;5378;53.206;13.316;2022-08-30T01:09:03;18.10;99.90
10660;DHT22;5378;53.206;13.316;2022-08-30T01:11:51;18.10;99.90
10660;DHT22;5378;53.206;13.316;2022-08-30T01:14:39;18.10;99.90
10660;DHT22;5378;53.206;13.316;2022-08-30T01:17:26;18.20;99.90
10660;DHT22;5378;53.206;13.316;2022-08-30T01:20:16;18.20;99.90
10660;DHT22;5378;53.206;13.316;2022-08-30T01:23:09;18.20;99.90
10660;DHT22;5378;53.206;13.316;2022-08-30T01:25:57;18.20;99.90
10660;DHT22;5378;53.206;13.316;2022-08-30T01:28:47;18.20;99.90
10660;DHT22;5378;53.206;13.316;2022-08-30T01:31:36;18.20;99.90
10660;DHT22;5378;53.206;13.316;2022-08-30T01:34:23;18.10;99.90
10660;DHT22;5378;53.206;13.316;2022-08-30T01:37:10;18.20;99.90
10660;DHT22;5378;53.206;13.316;2022-08-30T01:39:59;18.20;99.90
10660;DHT22;5378;53.206;13.316;2022-08-30T01:42:46;18.30;99.90
10660;DHT22;5378;53.206;13.316;2022-08-30T01:45:34;18.30;99.90
10660;DHT22;5378;53.206;13.316;2022-08-30T01:48:21;18.30;99.90
10660;DHT22;5378;53.206;13.316;2022-08-30T01:51:10;18.30;99.90
10660;DHT22;5378;53.206;13.316;2022-08-30T01:53:57;18.30;99.90
10660;DHT22;5378;53.206;13.316;2022-08-30T01:56:46;18.30;99.90
10660;DHT22;5378;53.206;13.316;2022-08-30T01:59:33;18.30;99.90
10660;DHT22;5378;53.206;13.316;2022-08-30T02:02:22;18.20;99.90
10660;DHT22;5378;53.206;13.316;2022-08-30T02:05:10;18.20;99.90
10660;DHT22;5378;53.206;13.316;2022-08-30T02:07:58;18.20;99.90
10660;DHT22;5378;53.206;13.316;2022-08-30T02:10:45;18.20;99.90
10660;DHT22;5378;53.206;13.316;2022-08-30T02:13:33;18.20;99.90
10660;DHT22;5378;53.206;13.316;2022-08-30T02:16:23;18.10;99.90
10660;DHT22;5378;53.206;13.316;2022-08-30T02:19:10;18.10;99.90
10660;DHT22;5378;53.206;13.316;2022-08-30T02:21:58;18.00;99.90
10660;DHT22;5378;53.206;13.316;2022-08-30T02:24:45;18.00;99.90
10660;DHT22;5378;53.206;13.316;2022-08-30T02:27:32;18.00;99.90
10660;DHT22;5378;53.206;13.316;2022-08-30T02:30:21;18.00;99.90
10660;DHT22;5378;53.206;13.316;2022-08-30T02:33:08;18.10;99.90
10660;DHT22;5378;53.206;13.316;2022-08-30T02:35:55;18.00;99.90
10660;DHT22;5378;53.206;13.316;2022-08-30T02:38:42;18.10;99.90
10660;DHT22;5378;53.206;13.316;2022-08-30T02:41:29;18.00;99.90
10660;DHT22;5378;53.206;13.316;2022-08-30T02:44:16;18.00;99.90
10660;DHT22;5378;53.206;13.316;2022-08-30T02:47:05;18.00;99.90
10660;DHT22;5378;53.206;13.316;2022-08-30T02:49:52;18.00;99.90
10660;DHT22;5378;53.206;13.316;2022-08-30T02:52:39;17.90;99.90
10660;DHT22;5378;53.206;13.316;2022-08-30T02:55:26;17.80;99.90
10660;DHT22;5378;53.206;13.316;2022-08-30T02:58:14;17.70;99.90
10660;DHT22;5378;53.206;13.316;2022-08-30T03:01:02;17.60;99.90
10660;DHT22;5378;53.206;13.316;2022-08-30T03:03:50;17.60;99.90
10660;DHT22;5378;53.206;13.316;2022-08-30T03:06:38;17.60;99.90
10660;DHT22;5378;53.206;13.316;2022-08-30T03:09:25;17.60;99.90
10660;DHT22;5378;53.206;13.316;2022-08-30T03:12:12;17.70;99.90
10660;DHT22;5378;53.206;13.316;2022-08-30T03:14:59;17.80;99.90
10660;DHT22;5378;53.206;13.316;2022-08-30T03:17:47;17.70;99.90
10660;DHT22;5378;53.206;13.316;2022-08-30T03:20:35;17.70;99.90
10660;DHT22;5378;53.206;13.316;2022-08-30T03:23:23;17.80;99.90
10660;DHT22;5378;53.206;13.316;2022-08-30T03:26:11;17.80;99.90
10660;DHT22;5378;53.206;13.316;2022-08-30T03:28:59;17.90;99.90
10660;DHT22;5378;53.206;13.316;2022-08-30T03:31:47;17.70;99.90
10660;DHT22;5378;53.206;13.316;2022-08-30T03:34:34;17.80;99.90
10660;DHT22;5378;53.206;13.316;2022-08-30T03:37:24;17.80;99.90
10660;DHT22;5378;53.206;13.316;2022-08-30T03:40:14;17.80;99.90
10660;DHT22;5378;53.206;13.316;2022-08-30T03:43:02;17.80;99.90
10660;DHT22;5378;53.206;13.316;2022-08-30T03:45:49;17.80;99.90
10660;DHT22;5378;53.206;13.316;2022-08-30T03:48:36;17.80;99.90
10660;DHT22;5378;53.206;13.316;2022-08-30T03:51:24;17.80;99.90
10660;DHT22;5378;53.206;13.316;2022-08-30T03:54:13;17.90;99.90
10660;DHT22;5378;53.206;13.316;2022-08-30T03:57:00;17.90;99.90
10660;DHT22;5378;53.206;13.316;2022-08-30T03:59:47;18.00;99.90
10660;DHT22;5378;53.206;13.316;2022-08-30T04:02:34;18.00;99.90
10660;DHT22;5378;53.206;13.316;2022-08-30T04:05:22;18.00;99.90
10660;DHT22;5378;53.206;13.316;2022-08-30T04:08:09;18.00;99.90
10660;DHT22;5378;53.206;13.316;2022-08-30T04:10:57;18.00;99.90
10660;DHT22;5378;53.206;13.316;2022-08-30T04:13:46;18.00;99.90
10660;DHT22;5378;53.206;13.316;2022-08-30T04:16:34;18.10;99.90
10660;DHT22;5378;53.206;13.316;2022-08-30T04:19:21;18.10;99.90
10660;DHT22;5378;53.206;13.316;2022-08-30T04:22:08;18.10;99.90
10660;DHT22;5378;53.206;13.316;2022-08-30T04:24:55;18.10;99.90
10660;DHT22;5378;53.206;13.316;2022-08-30T04:27:44;18.10;99.90
10660;DHT22;5378;53.206;13.316;2022-08-30T04:30:32;18.10;99.90
10660;DHT22;5378;53.206;13.316;2022-08-30T04:33:19;18.10;99.90
10660;DHT22;5378;53.206;13.316;2022-08-30T04:36:08;18.00;99.90
10660;DHT22;5378;53.206;13.316;2022-08-30T04:38:55;17.90;99.90
10660;DHT22;5378;53.206;13.316;2022-08-30T04:41:43;17.90;99.90
10660;DHT22;5378;53.206;13.316;2022-08-30T04:44:31;18.00;99.90
10660;DHT22;5378;53.206;13.316;2022-08-30T04:47:18;18.00;99.90
10660;DHT22;5378;53.206;13.316;2022-08-30T04:50:08;18.00;99.90
10660;DHT22;5378;53.206;13.316;2022-08-30T04:52:55;18.00;99.90
10660;DHT22;5378;53.206;13.316;2022-08-30T04:55:42;18.00;99.90
10660;DHT22;5378;53.206;13.316;2022-08-30T04:58:29;18.00;99.90
10660;DHT22;5378;53.206;13.316;2022-08-30T05:01:20;18.00;99.90
10660;DHT22;5378;53.206;13.316;2022-08-30T05:04:07;18.10;99.90
10660;DHT22;5378;53.206;13.316;2022-08-30T05:06:55;18.10;99.90
10660;DHT22;5378;53.206;13.316;2022-08-30T05:09:42;18.20;99.90
10660;DHT22;5378;53.206;13.316;2022-08-30T05:12:29;18.20;99.90
10660;DHT22;5378;53.206;13.316;2022-08-30T05:15:16;18.20;99.90
10660;DHT22;5378;53.206;13.316;2022-08-30T05:18:06;18.20;99.90
10660;DHT22;5378;53.206;13.316;2022-08-30T05:21:02;18.20;99.90
10660;DHT22;5378;53.206;13.316;2022-08-30T05:23:51;18.30;99.90
10660;DHT22;5378;53.206;13.316;2022-08-30T05:26:39;18.20;99.90
10660;DHT22;5378;53.206;13.316;2022-08-30T05:29:26;18.30;99.90
10660;DHT22;5378;53.206;13.316;2022-08-30T05:32:13;18.40;99.90
10660;DHT22;5378;53.206;13.316;2022-08-30T05:35:03;18.40;99.90
10660;DHT22;5378;53.206;13.316;2022-08-30T05:37:52;18.40;99.90
10660;DHT22;5378;53.206;13.316;2022-08-30T05:40:40;18.40;99.90
10660;DHT22;5378;53.206;13.316;2022-08-30T05:43:27;18.40;99.90
10660;DHT22;5378;53.206;13.316;2022-08-30T05:46:15;18.40;99.90
10660;DHT22;5378;53.206;13.316;2022-08-30T05:49:06;18.40;99.90
10660;DHT22;5378;53.206;13.316;2022-08-30T05:51:54;18.50;99.90
10660;DHT22;5378;53.206;13.316;2022-08-30T05:54:41;18.70;99.90
10660;DHT22;5378;53.206;13.316;2022-08-30T05:57:31;18.90;99.90
10660;DHT22;5378;53.206;13.316;2022-08-30T06:00:18;19.10;99.90
10660;DHT22;5378;53.206;13.316;2022-08-30T06:03:05;19.20;99.90
10660;DHT22;5378;53.206;13.316;2022-08-30T06:05:52;19.30;99.90
10660;DHT22;5378;53.206;13.316;2022-08-30T06:08:41;19.40;99.90
10660;DHT22;5378;53.206;13.316;2022-08-30T06:11:30;19.40;99.90
10660;DHT22;5378;53.206;13.316;2022-08-30T06:14:17;19.40;99.90
10660;DHT22;5378;53.206;13.316;2022-08-30T06:17:04;19.40;99.90
10660;DHT22;5378;53.206;13.316;2022-08-30T06:19:51;19.60;99.90
10660;DHT22;5378;53.206;13.316;2022-08-30T06:22:39;19.80;99.90
10660;DHT22;5378;53.206;13.316;2022-08-30T06:25:27;19.80;99.90
10660;DHT22;5378;53.206;13.316;2022-08-30T06:28:14;19.80;99.90
10660;DHT22;5378;53.206;13.316;2022-08-30T06:31:04;19.80;99.90
10660;DHT22;5378;53.206;13.316;2022-08-30T06:33:52;19.90;99.90
10660;DHT22;5378;53.206;13.316;2022-08-30T06:36:40;19.80;99.90
10660;DHT22;5378;53.206;13.316;2022-08-30T06:39:27;19.60;99.90
10660;DHT22;5378;53.206;13.316;2022-08-30T06:42:15;19.50;99.90
10660;DHT22;5378;53.206;13.316;2022-08-30T06:45:03;19.50;99.90
10660;DHT22;5378;53.206;13.316;2022-08-30T06:47:50;19.50;99.90
10660;DHT22;5378;53.206;13.316;2022-08-30T06:50:38;19.60;99.90
10660;DHT22;5378;53.206;13.316;2022-08-30T06:53:27;20.00;99.90
10660;DHT22;5378;53.206;13.316;2022-08-30T06:56:15;20.30;99.90
10660;DHT22;5378;53.206;13.316;2022-08-30T06:59:04;20.30;99.90
10660;DHT22;5378;53.206;13.316;2022-08-30T07:01:51;20.20;99.90
10660;DHT22;5378;53.206;13.316;2022-08-30T07:04:38;20.10;99.90
10660;DHT22;5378;53.206;13.316;2022-08-30T07:07:26;20.10;99.90
10660;DHT22;5378;53.206;13.316;2022-08-30T07:10:13;19.90;99.90
10660;DHT22;5378;53.206;13.316;2022-08-30T07:13:00;19.80;99.90
10660;DHT22;5378;53.206;13.316;2022-08-30T07:15:50;19.80;99.90
10660;DHT22;5378;53.206;13.316;2022-08-30T07:18:37;19.90;99.90
10660;DHT22;5378;53.206;13.316;2022-08-30T07:21:41;20.00;99.90
10660;DHT22;5378;53.206;13.316;2022-08-30T07:24:29;19.80;99.90
10660;DHT22;5378;53.206;13.316;2022-08-30T07:27:16;19.70;99.90
10660;DHT22;5378;53.206;13.316;2022-08-30T07:30:04;19.60;99.90
10660;DHT22;5378;53.206;13.316;2022-08-30T07:32:53;19.50;99.90
10660;DHT22;5378;53.206;13.316;2022-08-30T07:35:40;19.40;99.90
10660;DHT22;5378;53.206;13.316;2022-08-30T07:38:28;19.50;99.90
10660;DHT22;5378;53.206;13.316;2022-08-30T07:41:17;19.50;99.90
10660;DHT22;5378;53.206;13.316;2022-08-30T07:44:06;19.60;99.90
10660;DHT22;5378;53.206;13.316;2022-08-30T07:46:53;19.60;99.90
10660;DHT22;5378;53.206;13.316;2022-08-30T07:49:42;19.60;99.90
10660;DHT22;5378;53.206;13.316;2022-08-30T07:52:30;19.70;99.90
10660;DHT22;5378;53.206;13.316;2022-08-30T07:55:17;19.80;99.90
10660;DHT22;5378;53.206;13.316;2022-08-30T07:58:05;19.80;99.90
10660;DHT22;5378;53.206;13.316;2022-08-30T08:00:52;20.00;99.90
10660;DHT22;5378;53.206;13.316;2022-08-30T08:03:41;19.80;99.90
10660;DHT22;5378;53.206;13.316;2022-08-30T08:06:30;19.80;99.90
10660;DHT22;5378;53.206;13.316;2022-08-30T08:09:17;19.80;99.90
10660;DHT22;5378;53.206;13.316;2022-08-30T08:12:05;19.70;99.90
10660;DHT22;5378;53.206;13.316;2022-08-30T08:14:52;19.60;99.90
10660;DHT22;5378;53.206;13.316;2022-08-30T08:17:40;19.60;99.90
10660;DHT22;5378;53.206;13.316;2022-08-30T08:20:27;19.50;99.90
10660;DHT22;5378;53.206;13.316;2022-08-30T08:23:16;19.60;99.90
10660;DHT22;5378;53.206;13.316;2022-08-30T08:26:03;19.80;99.90
10660;DHT22;5378;53.206;13.316;2022-08-30T08:28:51;19.80;99.90
10660;DHT22;5378;53.206;13.316;2022-08-30T08:31:38;20.00;99.90
10660;DHT22;5378;53.206;13.316;2022-08-30T08:34:26;20.10;99.90
10660;DHT22;5378;53.206;13.316;2022-08-30T08:37:13;20.40;99.90
10660;DHT22;5378;53.206;13.316;2022-08-30T08:40:02;20.50;99.90
10660;DHT22;5378;53.206;13.316;2022-08-30T08:42:58;20.70;99.90
10660;DHT22;5378;53.206;13.316;2022-08-30T08:45:51;20.90;99.90
10660;DHT22;5378;53.206;13.316;2022-08-30T08:48:43;21.30;99.90
10660;DHT22;5378;53.206;13.316;2022-08-30T08:51:44;21.70;99.90
10660;DHT22;5378;53.206;13.316;2022-08-30T08:54:54;22.10;99.90
10660;DHT22;5378;53.206;13.316;2022-08-30T08:57:44;22.30;99.90
10660;DHT22;5378;53.206;13.316;2022-08-30T09:00:32;22.60;99.90
10660;DHT22;5378;53.206;13.316;2022-08-30T09:03:21;22.30;99.90
10660;DHT22;5378;53.206;13.316;2022-08-30T09:06:23;22.30;99.90
10660;DHT22;5378;53.206;13.316;2022-08-30T09:09:15;22.60;99.90
10660;DHT22;5378;53.206;13.316;2022-08-30T09:12:05;22.70;99.90
10660;DHT22;5378;53.206;13.316;2022-08-30T09:15:04;22.50;99.90
10660;DHT22;5378;53.206;13.316;2022-08-30T09:17:55;22.00;99.90
10660;DHT22;5378;53.206;13.316;2022-08-30T09:20:49;21.80;99.90
10660;DHT22;5378;53.206;13.316;2022-08-30T09:23:46;21.70;99.90
10660;DHT22;5378;53.206;13.316;2022-08-30T09:26:36;21.60;99.90
10660;DHT22;5378;53.206;13.316;2022-08-30T09:29:23;21.40;99.90
10660;DHT22;5378;53.206;13.316;2022-08-30T09:32:22;21.50;99.90
10660;DHT22;5378;53.206;13.316;2022-08-30T09:35:12;21.70;99.90
10660;DHT22;5378;53.206;13.316;2022-08-30T09:38:05;21.80;99.90
10660;DHT22;5378;53.206;13.316;2022-08-30T09:40:55;21.80;99.90
10660;DHT22;5378;53.206;13.316;2022-08-30T09:43:43;22.00;99.90
10660;DHT22;5378;53.206;13.316;2022-08-30T09:46:30;22.30;99.90
10660;DHT22;5378;53.206;13.316;2022-08-30T09:49:31;22.60;99.90
10660;DHT22;5378;53.206;13.316;2022-08-30T09:52:33;22.80;99.90
10660;DHT22;5378;53.206;13.316;2022-08-30T09:58:52;22.00;99.90
10660;DHT22;5378;53.206;13.316;2022-08-30T10:01:45;21.30;99.90
10660;DHT22;5378;53.206;13.316;2022-08-30T10:04:40;21.00;99.90
10660;DHT22;5378;53.206;13.316;2022-08-30T10:07:34;21.00;99.90
10660;DHT22;5378;53.206;13.316;2022-08-30T10:10:30;21.00;99.90
10660;DHT22;5378;53.206;13.316;2022-08-30T10:13:43;21.10;99.90
10660;DHT22;5378;53.206;13.316;2022-08-30T10:16:42;21.00;99.90
10660;DHT22;5378;53.206;13.316;2022-08-30T10:19:43;20.60;99.90
10660;DHT22;5378;53.206;13.316;2022-08-30T10:22:36;20.30;99.90
10660;DHT22;5378;53.206;13.316;2022-08-30T10:25:29;20.20;99.90
10660;DHT22;5378;53.206;13.316;2022-08-30T10:28:21;20.20;99.90
10660;DHT22;5378;53.206;13.316;2022-08-30T10:31:25;20.00;99.90
10660;DHT22;5378;53.206;13.316;2022-08-30T10:34:15;20.00;99.90
10660;DHT22;5378;53.206;13.316;2022-08-30T10:37:08;20.10;99.90
10660;DHT22;5378;53.206;13.316;2022-08-30T10:40:00;20.20;99.90
10660;DHT22;5378;53.206;13.316;2022-08-30T10:43:14;20.20;99.90
10660;DHT22;5378;53.206;13.316;2022-08-30T10:46:08;20.20;99.90
10660;DHT22;5378;53.206;13.316;2022-08-30T10:48:58;20.20;99.90
10660;DHT22;5378;53.206;13.316;2022-08-30T10:51:51;20.20;99.90
10660;DHT22;5378;53.206;13.316;2022-08-30T10:54:47;20.30;99.90
10660;DHT22;5378;53.206;13.316;2022-08-30T10:57:35;20.30;99.90
10660;DHT22;5378;53.206;13.316;2022-08-30T11:00:26;20.40;99.90
10660;DHT22;5378;53.206;13.316;2022-08-30T11:03:40;20.40;99.90
10660;DHT22;5378;53.206;13.316;2022-08-30T11:06:36;20.50;99.90
10660;DHT22;5378;53.206;13.316;2022-08-30T11:09:48;20.40;99.90
10660;DHT22;5378;53.206;13.316;2022-08-30T11:12:52;20.20;99.90
10660;DHT22;5378;53.206;13.316;2022-08-30T11:15:56;20.30;99.90
10660;DHT22;5378;53.206;13.316;2022-08-30T11:18:47;20.20;99.90
10660;DHT22;5378;53.206;13.316;2022-08-30T11:21:38;20.00;99.90
10660;DHT22;5378;53.206;13.316;2022-08-30T11:24:25;19.70;99.90
10660;DHT22;5378;53.206;13.316;2022-08-30T11:27:49;19.60;99.90
10660;DHT22;5378;53.206;13.316;2022-08-30T11:30:50;19.50;99.90
10660;DHT22;5378;53.206;13.316;2022-08-30T11:33:45;19.50;99.90
10660;DHT22;5378;53.206;13.316;2022-08-30T11:37:06;19.50;99.90
10660;DHT22;5378;53.206;13.316;2022-08-30T11:39:56;19.30;99.90
10660;DHT22;5378;53.206;13.316;2022-08-30T11:42:44;19.10;99.90
10660;DHT22;5378;53.206;13.316;2022-08-30T11:45:47;18.90;99.90
10660;DHT22;5378;53.206;13.316;2022-08-30T11:48:43;18.80;99.90
10660;DHT22;5378;53.206;13.316;2022-08-30T11:51:47;18.60;99.90
10660;DHT22;5378;53.206;13.316;2022-08-30T11:54:52;18.40;99.90
10660;DHT22;5378;53.206;13.316;2022-08-30T11:57:47;18.30;99.90
10660;DHT22;5378;53.206;13.316;2022-08-30T12:00:38;18.40;99.90
10660;DHT22;5378;53.206;13.316;2022-08-30T12:03:29;18.50;99.90
10660;DHT22;5378;53.206;13.316;2022-08-30T12:06:47;18.50;99.90
10660;DHT22;5378;53.206;13.316;2022-08-30T12:10:02;18.70;99.90
10660;DHT22;5378;53.206;13.316;2022-08-30T12:12:54;18.80;99.90
10660;DHT22;5378;53.206;13.316;2022-08-30T12:15:53;19.10;99.90
10660;DHT22;5378;53.206;13.316;2022-08-30T12:18:45;19.40;99.90
10660;DHT22;5378;53.206;13.316;2022-08-30T12:21:34;19.40;99.90
10660;DHT22;5378;53.206;13.316;2022-08-30T12:24:25;19.50;99.90
10660;DHT22;5378;53.206;13.316;2022-08-30T12:27:31;19.60;99.90
10660;DHT22;5378;53.206;13.316;2022-08-30T12:30:25;19.80;99.90
10660;DHT22;5378;53.206;13.316;2022-08-30T12:33:24;20.10;99.90
10660;DHT22;5378;53.206;13.316;2022-08-30T12:36:31;20.30;99.90
10660;DHT22;5378;53.206;13.316;2022-08-30T12:39:21;20.40;99.90
10660;DHT22;5378;53.206;13.316;2022-08-30T12:42:17;20.50;99.90
10660;DHT22;5378;53.206;13.316;2022-08-30T12:45:09;20.70;99.90
10660;DHT22;5378;53.206;13.316;2022-08-30T12:47:59;20.90;99.90
10660;DHT22;5378;53.206;13.316;2022-08-30T12:50:51;21.10;99.90
10660;DHT22;5378;53.206;13.316;2022-08-30T12:53:41;21.20;99.90
10660;DHT22;5378;53.206;13.316;2022-08-30T12:56:49;21.10;99.90
10660;DHT22;5378;53.206;13.316;2022-08-30T12:59:38;20.90;99.90
10660;DHT22;5378;53.206;13.316;2022-08-30T13:02:27;20.60;99.90
10660;DHT22;5378;53.206;13.316;2022-08-30T13:05:33;20.40;99.90
10660;DHT22;5378;53.206;13.316;2022-08-30T13:08:32;20.20;99.90
10660;DHT22;5378;53.206;13.316;2022-08-30T13:11:25;20.00;99.90
10660;DHT22;5378;53.206;13.316;2022-08-30T13:14:31;19.90;99.90
10660;DHT22;5378;53.206;13.316;2022-08-30T13:17:21;20.00;99.90
10660;DHT22;5378;53.206;13.316;2022-08-30T13:20:22;20.00;99.90
10660;DHT22;5378;53.206;13.316;2022-08-30T13:23:10;20.10;99.90
10660;DHT22;5378;53.206;13.316;2022-08-30T13:25:57;20.30;99.90
10660;DHT22;5378;53.206;13.316;2022-08-30T13:28:48;20.20;99.90
10660;DHT22;5378;53.206;13.316;2022-08-30T13:31:35;20.40;99.90
10660;DHT22;5378;53.206;13.316;2022-08-30T13:34:22;20.70;99.90
10660;DHT22;5378;53.206;13.316;2022-08-30T13:37:13;20.80;99.90
10660;DHT22;5378;53.206;13.316;2022-08-30T13:40:21;21.00;99.90
10660;DHT22;5378;53.206;13.316;2022-08-30T13:43:09;20.90;99.90
10660;DHT22;5378;53.206;13.316;2022-08-30T13:45:58;20.70;99.90
10660;DHT22;5378;53.206;13.316;2022-08-30T13:48:45;20.80;99.90
10660;DHT22;5378;53.206;13.316;2022-08-30T13:51:32;20.90;99.90
10660;DHT22;5378;53.206;13.316;2022-08-30T13:54:19;21.30;99.90
10660;DHT22;5378;53.206;13.316;2022-08-30T13:57:07;21.40;99.90
10660;DHT22;5378;53.206;13.316;2022-08-30T13:59:54;21.60;99.90
10660;DHT22;5378;53.206;13.316;2022-08-30T14:02:43;21.30;99.90
10660;DHT22;5378;53.206;13.316;2022-08-30T14:05:36;21.40;99.90
10660;DHT22;5378;53.206;13.316;2022-08-30T14:08:44;21.30;99.90
10660;DHT22;5378;53.206;13.316;2022-08-30T14:11:32;20.90;99.90
10660;DHT22;5378;53.206;13.316;2022-08-30T14:14:20;20.80;99.90
10660;DHT22;5378;53.206;13.316;2022-08-30T14:17:15;20.70;99.90
10660;DHT22;5378;53.206;13.316;2022-08-30T14:20:04;20.50;99.90
10660;DHT22;5378;53.206;13.316;2022-08-30T14:22:51;20.60;99.90
10660;DHT22;5378;53.206;13.316;2022-08-30T14:25:38;20.40;99.90
10660;DHT22;5378;53.206;13.316;2022-08-30T14:28:25;20.30;99.90
10660;DHT22;5378;53.206;13.316;2022-08-30T14:31:15;20.20;99.90
10660;DHT22;5378;53.206;13.316;2022-08-30T14:34:02;20.10;99.90
10660;DHT22;5378;53.206;13.316;2022-08-30T14:36:51;20.20;99.90
10660;DHT22;5378;53.206;13.316;2022-08-30T14:39:38;20.20;99.90
10660;DHT22;5378;53.206;13.316;2022-08-30T14:42:25;20.30;99.90
10660;DHT22;5378;53.206;13.316;2022-08-30T14:45:13;20.30;99.90
10660;DHT22;5378;53.206;13.316;2022-08-30T14:48:00;20.30;99.90
10660;DHT22;5378;53.206;13.316;2022-08-30T14:50:51;20.40;99.90
10660;DHT22;5378;53.206;13.316;2022-08-30T14:53:40;20.40;99.90
10660;DHT22;5378;53.206;13.316;2022-08-30T14:56:27;20.30;99.90
10660;DHT22;5378;53.206;13.316;2022-08-30T14:59:14;20.30;99.90
10660;DHT22;5378;53.206;13.316;2022-08-30T15:02:03;20.40;99.90
10660;DHT22;5378;53.206;13.316;2022-08-30T15:04:50;20.40;99.90
10660;DHT22;5378;53.206;13.316;2022-08-30T15:07:37;20.50;99.90
10660;DHT22;5378;53.206;13.316;2022-08-30T15:10:26;20.60;99.90
10660;DHT22;5378;53.206;13.316;2022-08-30T15:13:13;20.70;99.90
10660;DHT22;5378;53.206;13.316;2022-08-30T15:16:00;20.90;99.90
10660;DHT22;5378;53.206;13.316;2022-08-30T15:18:47;20.80;99.90
10660;DHT22;5378;53.206;13.316;2022-08-30T15:21:37;20.70;99.90
10660;DHT22;5378;53.206;13.316;2022-08-30T15:24:24;20.60;99.90
10660;DHT22;5378;53.206;13.316;2022-08-30T15:27:13;20.40;99.90
10660;DHT22;5378;53.206;13.316;2022-08-30T15:30:00;20.20;99.90
10660;DHT22;5378;53.206;13.316;2022-08-30T15:32:48;20.10;99.90
10660;DHT22;5378;53.206;13.316;2022-08-30T15:35:34;20.20;99.90
10660;DHT22;5378;53.206;13.316;2022-08-30T15:38:21;20.30;99.90
10660;DHT22;5378;53.206;13.316;2022-08-30T15:41:11;20.30;99.90
10660;DHT22;5378;53.206;13.316;2022-08-30T15:43:59;20.30;99.90
10660;DHT22;5378;53.206;13.316;2022-08-30T15:46:46;20.30;99.90
10660;DHT22;5378;53.206;13.316;2022-08-30T15:49:33;20.30;99.90
10660;DHT22;5378;53.206;13.316;2022-08-30T15:52:21;20.20;99.90
10660;DHT22;5378;53.206;13.316;2022-08-30T15:55:08;20.10;99.90
10660;DHT22;5378;53.206;13.316;2022-08-30T15:57:55;20.20;99.90
10660;DHT22;5378;53.206;13.316;2022-08-30T16:00:44;20.10;99.90
10660;DHT22;5378;53.206;13.316;2022-08-30T16:03:32;20.00;99.90
10660;DHT22;5378;53.206;13.316;2022-08-30T16:06:21;20.10;99.90
10660;DHT22;5378;53.206;13.316;2022-08-30T16:09:09;20.20;99.90
10660;DHT22;5378;53.206;13.316;2022-08-30T16:11:56;20.20;99.90
10660;DHT22;5378;53.206;13.316;2022-08-30T16:14:44;20.20;99.90
10660;DHT22;5378;53.206;13.316;2022-08-30T16:17:32;20.10;99.90
10660;DHT22;5378;53.206;13.316;2022-08-30T16:20:19;20.00;99.90
10660;DHT22;5378;53.206;13.316;2022-08-30T16:23:06;19.80;99.90
10660;DHT22;5378;53.206;13.316;2022-08-30T16:25:53;19.80;99.90
10660;DHT22;5378;53.206;13.316;2022-08-30T16:28:41;19.80;99.90
10660;DHT22;5378;53.206;13.316;2022-08-30T16:31:29;19.80;99.90
10660;DHT22;5378;53.206;13.316;2022-08-30T16:34:19;19.70;99.90
10660;DHT22;5378;53.206;13.316;2022-08-30T16:37:06;19.60;99.90
10660;DHT22;5378;53.206;13.316;2022-08-30T16:39:53;19.60;99.90
10660;DHT22;5378;53.206;13.316;2022-08-30T16:42:40;19.40;99.90
10660;DHT22;5378;53.206;13.316;2022-08-30T16:45:28;19.30;99.90
10660;DHT22;5378;53.206;13.316;2022-08-30T16:48:17;19.20;99.90
10660;DHT22;5378;53.206;13.316;2022-08-30T16:51:07;19.20;99.90
10660;DHT22;5378;53.206;13.316;2022-08-30T16:53:56;19.10;99.90
10660;DHT22;5378;53.206;13.316;2022-08-30T16:56:44;18.90;99.90
10660;DHT22;5378;53.206;13.316;2022-08-30T16:59:31;18.90;99.90
10660;DHT22;5378;53.206;13.316;2022-08-30T17:02:18;18.90;99.90
10660;DHT22;5378;53.206;13.316;2022-08-30T17:05:05;18.90;99.90
10660;DHT22;5378;53.206;13.316;2022-08-30T17:07:54;18.80;99.90
10660;DHT22;5378;53.206;13.316;2022-08-30T17:10:42;18.80;99.90
10660;DHT22;5378;53.206;13.316;2022-08-30T17:13:30;18.80;99.90
10660;DHT22;5378;53.206;13.316;2022-08-30T17:16:17;18.80;99.90
10660;DHT22;5378;53.206;13.316;2022-08-30T17:19:06;18.80;99.90
10660;DHT22;5378;53.206;13.316;2022-08-30T17:21:53;18.80;99.90
10660;DHT22;5378;53.206;13.316;2022-08-30T17:24:42;18.70;99.90
10660;DHT22;5378;53.206;13.316;2022-08-30T17:27:31;18.60;99.90
10660;DHT22;5378;53.206;13.316;2022-08-30T17:30:18;18.60;99.90
10660;DHT22;5378;53.206;13.316;2022-08-30T17:33:05;18.50;99.90
10660;DHT22;5378;53.206;13.316;2022-08-30T17:35:53;18.50;99.90
10660;DHT22;5378;53.206;13.316;2022-08-30T17:38:40;18.40;99.90
10660;DHT22;5378;53.206;13.316;2022-08-30T17:41:28;18.40;99.90
10660;DHT22;5378;53.206;13.316;2022-08-30T17:44:16;18.20;99.90
10660;DHT22;5378;53.206;13.316;2022-08-30T17:47:03;18.20;99.90
10660;DHT22;5378;53.206;13.316;2022-08-30T17:49:50;18.10;99.90
10660;DHT22;5378;53.206;13.316;2022-08-30T17:52:37;17.90;99.90
10660;DHT22;5378;53.206;13.316;2022-08-30T17:55:24;17.90;99.90
10660;DHT22;5378;53.206;13.316;2022-08-30T17:58:13;17.80;99.90